sensor_id;sensor_type;location;lat;lon;timestamp;temperature;humidity
55313;DHT22;46892;45.668;11.756;2023-11-19T00:00:25;4.50;80.50
55313;DHT22;46892;45.668;11.756;2023-11-19T00:02:51;4.60;81.10
55313;DHT22;46892;45.668;11.756;2023-11-19T00:05:17;4.70;80.30
55313;DHT22;46892;45.668;11.756;2023-11-19T00:07:44;4.70;80.60
55313;DHT22;46892;45.668;11.756;2023-11-19T00:10:10;4.70;80.10
55313;DHT22;46892;45.668;11.756;2023-11-19T00:12:38;4.70;80.00
55313;DHT22;46892;45.668;11.756;2023-11-19T00:15:04;4.80;80.00
55313;DHT22;46892;45.668;11.756;2023-11-19T00:17:30;4.80;79.70
55313;DHT22;46892;45.668;11.756;2023-11-19T00:19:56;4.70;79.20
55313;DHT22;46892;45.668;11.756;2023-11-19T00:22:21;4.70;80.00
55313;DHT22;46892;45.668;11.756;2023-11-19T00:24:47;4.70;80.20
55313;DHT22;46892;45.668;11.756;2023-11-19T00:27:13;4.70;80.20
55313;DHT22;46892;45.668;11.756;2023-11-19T00:29:39;4.80;81.60
55313;DHT22;46892;45.668;11.756;2023-11-19T00:32:05;4.90;80.40
55313;DHT22;46892;45.668;11.756;2023-11-19T00:34:33;4.80;79.60
55313;DHT22;46892;45.668;11.756;2023-11-19T00:36:58;4.80;79.40
55313;DHT22;46892;45.668;11.756;2023-11-19T00:39:24;4.80;79.50
55313;DHT22;46892;45.668;11.756;2023-11-19T00:41:50;4.80;79.50
55313;DHT22;46892;45.668;11.756;2023-11-19T00:44:16;4.80;80.90
55313;DHT22;46892;45.668;11.756;2023-11-19T00:46:41;4.90;81.20
55313;DHT22;46892;45.668;11.756;2023-11-19T00:49:07;4.90;80.50
55313;DHT22;46892;45.668;11.756;2023-11-19T00:51:33;5.00;80.80
55313;DHT22;46892;45.668;11.756;2023-11-19T00:53:59;5.10;80.00
55313;DHT22;46892;45.668;11.756;2023-11-19T00:56:26;5.10;79.90
55313;DHT22;46892;45.668;11.756;2023-11-19T00:58:53;5.00;78.40
55313;DHT22;46892;45.668;11.756;2023-11-19T01:01:19;4.80;79.30
55313;DHT22;46892;45.668;11.756;2023-11-19T01:03:45;4.80;80.30
55313;DHT22;46892;45.668;11.756;2023-11-19T01:06:10;4.80;80.10
55313;DHT22;46892;45.668;11.756;2023-11-19T01:08:36;4.80;81.30
55313;DHT22;46892;45.668;11.756;2023-11-19T01:11:02;4.80;80.80
55313;DHT22;46892;45.668;11.756;2023-11-19T01:13:28;4.90;81.40
55313;DHT22;46892;45.668;11.756;2023-11-19T01:15:54;5.00;81.50
55313;DHT22;46892;45.668;11.756;2023-11-19T01:18:21;5.00;81.00
55313;DHT22;46892;45.668;11.756;2023-11-19T01:20:47;5.10;81.10
55313;DHT22;46892;45.668;11.756;2023-11-19T01:23:13;5.10;80.30
55313;DHT22;46892;45.668;11.756;2023-11-19T01:25:39;5.00;80.30
55313;DHT22;46892;45.668;11.756;2023-11-19T01:28:04;4.90;80.40
55313;DHT22;46892;45.668;11.756;2023-11-19T01:30:30;4.80;81.00
55313;DHT22;46892;45.668;11.756;2023-11-19T01:32:56;4.80;81.10
55313;DHT22;46892;45.668;11.756;2023-11-19T01:35:22;4.80;81.10
55313;DHT22;46892;45.668;11.756;2023-11-19T01:37:48;4.80;81.00
55313;DHT22;46892;45.668;11.756;2023-11-19T01:40:20;4.80;80.80
55313;DHT22;46892;45.668;11.756;2023-11-19T01:42:46;4.90;82.50
55313;DHT22;46892;45.668;11.756;2023-11-19T01:45:30;4.90;81.40
55313;DHT22;46892;45.668;11.756;2023-11-19T01:47:57;4.90;81.30
55313;DHT22;46892;45.668;11.756;2023-11-19T01:50:24;4.90;81.40
55313;DHT22;46892;45.668;11.756;2023-11-19T01:52:52;5.00;82.40
55313;DHT22;46892;45.668;11.756;2023-11-19T01:55:23;5.00;80.50
55313;DHT22;46892;45.668;11.756;2023-11-19T01:57:49;5.00;81.00
55313;DHT22;46892;45.668;11.756;2023-11-19T02:00:17;5.10;81.50
55313;DHT22;46892;45.668;11.756;2023-11-19T02:02:48;4.90;80.20
55313;DHT22;46892;45.668;11.756;2023-11-19T02:05:14;4.80;80.80
55313;DHT22;46892;45.668;11.756;2023-11-19T02:07:40;4.80;81.40
55313;DHT22;46892;45.668;11.756;2023-11-19T02:10:06;4.80;81.70
55313;DHT22;46892;45.668;11.756;2023-11-19T02:12:33;4.80;81.40
55313;DHT22;46892;45.668;11.756;2023-11-19T02:15:00;4.80;81.60
55313;DHT22;46892;45.668;11.756;2023-11-19T02:17:27;4.80;81.40
55313;DHT22;46892;45.668;11.756;2023-11-19T02:19:53;4.90;82.70
55313;DHT22;46892;45.668;11.756;2023-11-19T02:22:19;5.00;81.90
55313;DHT22;46892;45.668;11.756;2023-11-19T02:24:46;5.00;80.90
55313;DHT22;46892;45.668;11.756;2023-11-19T02:30:14;4.80;81.90
55313;DHT22;46892;45.668;11.756;2023-11-19T02:32:43;4.90;81.10
55313;DHT22;46892;45.668;11.756;2023-11-19T02:35:09;4.80;81.60
55313;DHT22;46892;45.668;11.756;2023-11-19T02:37:35;4.80;81.50
55313;DHT22;46892;45.668;11.756;2023-11-19T02:40:00;4.80;81.20
55313;DHT22;46892;45.668;11.756;2023-11-19T02:42:28;4.90;82.10
55313;DHT22;46892;45.668;11.756;2023-11-19T02:44:54;5.10;81.90
55313;DHT22;46892;45.668;11.756;2023-11-19T02:47:20;5.10;80.80
55313;DHT22;46892;45.668;11.756;2023-11-19T02:49:47;5.00;80.80
55313;DHT22;46892;45.668;11.756;2023-11-19T02:52:13;5.00;80.80
55313;DHT22;46892;45.668;11.756;2023-11-19T02:54:40;5.00;80.80
55313;DHT22;46892;45.668;11.756;2023-11-19T02:57:07;5.00;80.90
55313;DHT22;46892;45.668;11.756;2023-11-19T02:59:39;4.90;81.20
55313;DHT22;46892;45.668;11.756;2023-11-19T03:02:07;5.10;81.60
55313;DHT22;46892;45.668;11.756;2023-11-19T03:04:38;5.20;81.10
55313;DHT22;46892;45.668;11.756;2023-11-19T03:07:08;5.00;81.20
55313;DHT22;46892;45.668;11.756;2023-11-19T03:09:34;5.00;81.00
55313;DHT22;46892;45.668;11.756;2023-11-19T03:12:06;5.00;81.00
55313;DHT22;46892;45.668;11.756;2023-11-19T03:14:33;4.80;80.40
55313;DHT22;46892;45.668;11.756;2023-11-19T03:17:00;4.80;80.50
55313;DHT22;46892;45.668;11.756;2023-11-19T03:19:25;4.80;81.50
55313;DHT22;46892;45.668;11.756;2023-11-19T03:21:52;4.70;82.20
55313;DHT22;46892;45.668;11.756;2023-11-19T03:24:18;4.80;82.00
55313;DHT22;46892;45.668;11.756;2023-11-19T03:26:50;4.80;81.70
55313;DHT22;46892;45.668;11.756;2023-11-19T03:29:16;4.70;82.40
55313;DHT22;46892;45.668;11.756;2023-11-19T03:31:42;4.70;81.40
55313;DHT22;46892;45.668;11.756;2023-11-19T03:34:08;4.70;82.20
55313;DHT22;46892;45.668;11.756;2023-11-19T03:36:34;4.40;81.40
55313;DHT22;46892;45.668;11.756;2023-11-19T03:39:00;4.30;81.90
55313;DHT22;46892;45.668;11.756;2023-11-19T03:41:26;4.20;82.30
55313;DHT22;46892;45.668;11.756;2023-11-19T03:43:51;4.20;82.40
55313;DHT22;46892;45.668;11.756;2023-11-19T03:46:20;4.20;82.40
55313;DHT22;46892;45.668;11.756;2023-11-19T03:48:49;4.20;83.50
55313;DHT22;46892;45.668;11.756;2023-11-19T03:51:16;4.30;83.00
55313;DHT22;46892;45.668;11.756;2023-11-19T03:53:45;4.40;83.20
55313;DHT22;46892;45.668;11.756;2023-11-19T03:56:11;4.40;82.20
55313;DHT22;46892;45.668;11.756;2023-11-19T03:58:37;4.40;81.80
55313;DHT22;46892;45.668;11.756;2023-11-19T04:01:11;4.30;82.10
55313;DHT22;46892;45.668;11.756;2023-11-19T04:03:37;4.40;82.90
55313;DHT22;46892;45.668;11.756;2023-11-19T04:06:03;4.40;82.10
55313;DHT22;46892;45.668;11.756;2023-11-19T04:08:30;4.40;81.90
55313;DHT22;46892;45.668;11.756;2023-11-19T04:10:55;4.40;82.20
55313;DHT22;46892;45.668;11.756;2023-11-19T04:13:21;4.40;82.40
55313;DHT22;46892;45.668;11.756;2023-11-19T04:15:49;4.40;81.80
55313;DHT22;46892;45.668;11.756;2023-11-19T04:18:15;4.40;81.90
55313;DHT22;46892;45.668;11.756;2023-11-19T04:20:41;4.30;81.90
55313;DHT22;46892;45.668;11.756;2023-11-19T04:23:10;4.30;81.70
55313;DHT22;46892;45.668;11.756;2023-11-19T04:25:36;4.40;82.50
55313;DHT22;46892;45.668;11.756;2023-11-19T04:28:02;4.40;81.70
55313;DHT22;46892;45.668;11.756;2023-11-19T04:30:28;4.30;81.20
55313;DHT22;46892;45.668;11.756;2023-11-19T04:32:54;4.30;81.50
55313;DHT22;46892;45.668;11.756;2023-11-19T04:35:20;4.30;82.20
55313;DHT22;46892;45.668;11.756;2023-11-19T04:37:46;4.50;81.80
55313;DHT22;46892;45.668;11.756;2023-11-19T04:40:13;4.50;81.00
55313;DHT22;46892;45.668;11.756;2023-11-19T04:42:38;4.50;80.70
55313;DHT22;46892;45.668;11.756;2023-11-19T04:45:07;4.50;81.20
55313;DHT22;46892;45.668;11.756;2023-11-19T04:47:36;4.40;81.10
55313;DHT22;46892;45.668;11.756;2023-11-19T04:50:02;4.40;80.60
55313;DHT22;46892;45.668;11.756;2023-11-19T04:52:29;4.30;80.60
55313;DHT22;46892;45.668;11.756;2023-11-19T04:54:54;4.30;80.50
55313;DHT22;46892;45.668;11.756;2023-11-19T04:57:20;4.20;80.70
55313;DHT22;46892;45.668;11.756;2023-11-19T04:59:46;4.20;81.90
55313;DHT22;46892;45.668;11.756;2023-11-19T05:02:11;4.50;81.10
55313;DHT22;46892;45.668;11.756;2023-11-19T05:04:42;4.40;80.50
55313;DHT22;46892;45.668;11.756;2023-11-19T05:07:08;4.30;80.40
55313;DHT22;46892;45.668;11.756;2023-11-19T05:09:34;4.30;80.60
55313;DHT22;46892;45.668;11.756;2023-11-19T05:11:59;4.40;81.30
55313;DHT22;46892;45.668;11.756;2023-11-19T05:14:27;4.30;80.60
55313;DHT22;46892;45.668;11.756;2023-11-19T05:16:53;4.20;79.50
55313;DHT22;46892;45.668;11.756;2023-11-19T05:19:19;4.10;81.30
55313;DHT22;46892;45.668;11.756;2023-11-19T05:21:44;4.00;80.10
55313;DHT22;46892;45.668;11.756;2023-11-19T05:24:10;3.90;81.00
55313;DHT22;46892;45.668;11.756;2023-11-19T05:26:38;3.90;81.00
55313;DHT22;46892;45.668;11.756;2023-11-19T05:29:03;3.80;81.10
55313;DHT22;46892;45.668;11.756;2023-11-19T05:31:30;3.80;81.40
55313;DHT22;46892;45.668;11.756;2023-11-19T05:33:56;3.70;81.90
55313;DHT22;46892;45.668;11.756;2023-11-19T05:36:21;3.80;82.80
55313;DHT22;46892;45.668;11.756;2023-11-19T05:38:47;3.80;82.40
55313;DHT22;46892;45.668;11.756;2023-11-19T05:41:13;3.80;82.50
55313;DHT22;46892;45.668;11.756;2023-11-19T05:43:39;3.80;82.30
55313;DHT22;46892;45.668;11.756;2023-11-19T05:46:06;3.90;82.00
55313;DHT22;46892;45.668;11.756;2023-11-19T05:48:32;3.90;81.90
55313;DHT22;46892;45.668;11.756;2023-11-19T05:50:58;3.80;81.90
55313;DHT22;46892;45.668;11.756;2023-11-19T05:53:24;3.90;82.80
55313;DHT22;46892;45.668;11.756;2023-11-19T05:55:50;3.90;82.30
55313;DHT22;46892;45.668;11.756;2023-11-19T05:58:26;3.80;81.80
55313;DHT22;46892;45.668;11.756;2023-11-19T06:00:53;3.80;82.30
55313;DHT22;46892;45.668;11.756;2023-11-19T06:03:19;3.80;81.30
55313;DHT22;46892;45.668;11.756;2023-11-19T06:05:45;3.80;81.40
55313;DHT22;46892;45.668;11.756;2023-11-19T06:08:12;3.80;82.40
55313;DHT22;46892;45.668;11.756;2023-11-19T06:10:40;3.70;82.00
55313;DHT22;46892;45.668;11.756;2023-11-19T06:13:06;3.80;81.60
55313;DHT22;46892;45.668;11.756;2023-11-19T06:15:32;3.70;81.60
55313;DHT22;46892;45.668;11.756;2023-11-19T06:17:59;3.60;82.00
55313;DHT22;46892;45.668;11.756;2023-11-19T06:20:29;3.60;82.00
55313;DHT22;46892;45.668;11.756;2023-11-19T06:22:56;3.50;81.90
55313;DHT22;46892;45.668;11.756;2023-11-19T06:25:22;3.50;82.80
55313;DHT22;46892;45.668;11.756;2023-11-19T06:27:49;3.50;82.60
55313;DHT22;46892;45.668;11.756;2023-11-19T06:30:15;3.60;82.70
55313;DHT22;46892;45.668;11.756;2023-11-19T06:32:42;3.60;82.90
55313;DHT22;46892;45.668;11.756;2023-11-19T06:35:08;3.60;83.00
55313;DHT22;46892;45.668;11.756;2023-11-19T06:37:35;3.60;82.10
55313;DHT22;46892;45.668;11.756;2023-11-19T06:40:01;3.50;81.90
55313;DHT22;46892;45.668;11.756;2023-11-19T06:42:27;3.50;82.40
55313;DHT22;46892;45.668;11.756;2023-11-19T06:44:53;3.40;83.60
55313;DHT22;46892;45.668;11.756;2023-11-19T06:47:18;3.60;84.00
55313;DHT22;46892;45.668;11.756;2023-11-19T06:49:44;3.80;81.90
55313;DHT22;46892;45.668;11.756;2023-11-19T06:52:10;3.70;81.80
55313;DHT22;46892;45.668;11.756;2023-11-19T06:54:38;3.70;81.40
55313;DHT22;46892;45.668;11.756;2023-11-19T06:57:04;3.70;82.30
55313;DHT22;46892;45.668;11.756;2023-11-19T06:59:31;3.70;82.90
55313;DHT22;46892;45.668;11.756;2023-11-19T07:01:57;3.60;82.30
55313;DHT22;46892;45.668;11.756;2023-11-19T07:04:23;3.70;82.70
55313;DHT22;46892;45.668;11.756;2023-11-19T07:06:48;3.80;82.40
55313;DHT22;46892;45.668;11.756;2023-11-19T07:09:14;3.90;82.70
55313;DHT22;46892;45.668;11.756;2023-11-19T07:11:41;4.20;83.30
55313;DHT22;46892;45.668;11.756;2023-11-19T07:14:08;4.50;82.90
55313;DHT22;46892;45.668;11.756;2023-11-19T07:16:34;4.90;81.20
55313;DHT22;46892;45.668;11.756;2023-11-19T07:19:06;5.30;81.00
55313;DHT22;46892;45.668;11.756;2023-11-19T07:21:32;5.40;78.70
55313;DHT22;46892;45.668;11.756;2023-11-19T07:24:04;5.50;79.40
55313;DHT22;46892;45.668;11.756;2023-11-19T07:26:30;5.80;77.80
55313;DHT22;46892;45.668;11.756;2023-11-19T07:28:56;5.90;78.70
55313;DHT22;46892;45.668;11.756;2023-11-19T07:31:21;6.10;77.60
55313;DHT22;46892;45.668;11.756;2023-11-19T07:33:47;6.20;78.30
55313;DHT22;46892;45.668;11.756;2023-11-19T07:36:14;6.30;78.20
55313;DHT22;46892;45.668;11.756;2023-11-19T07:38:39;6.60;77.50
55313;DHT22;46892;45.668;11.756;2023-11-19T07:41:05;6.60;75.90
55313;DHT22;46892;45.668;11.756;2023-11-19T07:43:32;6.60;75.80
55313;DHT22;46892;45.668;11.756;2023-11-19T07:45:59;6.70;77.40
55313;DHT22;46892;45.668;11.756;2023-11-19T07:48:25;6.80;77.00
55313;DHT22;46892;45.668;11.756;2023-11-19T07:50:52;7.20;75.70
55313;DHT22;46892;45.668;11.756;2023-11-19T07:53:18;7.50;76.40
55313;DHT22;46892;45.668;11.756;2023-11-19T07:55:44;7.70;76.00
55313;DHT22;46892;45.668;11.756;2023-11-19T07:58:13;7.80;76.10
55313;DHT22;46892;45.668;11.756;2023-11-19T08:00:38;7.90;76.60
55313;DHT22;46892;45.668;11.756;2023-11-19T08:03:06;7.90;77.20
55313;DHT22;46892;45.668;11.756;2023-11-19T08:05:32;8.00;77.40
55313;DHT22;46892;45.668;11.756;2023-11-19T08:07:57;8.20;75.70
55313;DHT22;46892;45.668;11.756;2023-11-19T08:10:24;8.30;75.60
55313;DHT22;46892;45.668;11.756;2023-11-19T08:12:49;8.30;74.50
55313;DHT22;46892;45.668;11.756;2023-11-19T08:15:15;8.30;75.80
55313;DHT22;46892;45.668;11.756;2023-11-19T08:17:41;8.30;75.30
55313;DHT22;46892;45.668;11.756;2023-11-19T08:20:09;8.30;74.80
55313;DHT22;46892;45.668;11.756;2023-11-19T08:22:39;8.30;74.60
55313;DHT22;46892;45.668;11.756;2023-11-19T08:25:05;8.30;73.00
55313;DHT22;46892;45.668;11.756;2023-11-19T08:27:31;8.50;78.50
55313;DHT22;46892;45.668;11.756;2023-11-19T08:29:58;8.60;74.20
55313;DHT22;46892;45.668;11.756;2023-11-19T08:32:24;8.80;76.60
55313;DHT22;46892;45.668;11.756;2023-11-19T08:34:50;9.20;75.60
55313;DHT22;46892;45.668;11.756;2023-11-19T08:37:16;9.30;75.20
55313;DHT22;46892;45.668;11.756;2023-11-19T08:39:49;9.60;74.20
55313;DHT22;46892;45.668;11.756;2023-11-19T08:42:16;9.70;72.50
55313;DHT22;46892;45.668;11.756;2023-11-19T08:44:43;9.80;72.10
55313;DHT22;46892;45.668;11.756;2023-11-19T08:47:15;10.00;72.70
55313;DHT22;46892;45.668;11.756;2023-11-19T08:49:43;10.00;72.00
55313;DHT22;46892;45.668;11.756;2023-11-19T08:52:09;10.10;70.90
55313;DHT22;46892;45.668;11.756;2023-11-19T08:54:36;10.20;68.70
55313;DHT22;46892;45.668;11.756;2023-11-19T08:57:03;10.30;68.00
55313;DHT22;46892;45.668;11.756;2023-11-19T08:59:29;10.30;68.30
55313;DHT22;46892;45.668;11.756;2023-11-19T09:01:55;10.30;69.60
55313;DHT22;46892;45.668;11.756;2023-11-19T09:04:21;10.30;71.50
55313;DHT22;46892;45.668;11.756;2023-11-19T09:06:48;10.30;71.10
55313;DHT22;46892;45.668;11.756;2023-11-19T09:09:14;10.30;71.40
55313;DHT22;46892;45.668;11.756;2023-11-19T09:11:40;10.30;71.60
55313;DHT22;46892;45.668;11.756;2023-11-19T09:14:06;10.30;70.30
55313;DHT22;46892;45.668;11.756;2023-11-19T09:16:32;10.20;69.00
55313;DHT22;46892;45.668;11.756;2023-11-19T09:18:58;10.30;70.10
55313;DHT22;46892;45.668;11.756;2023-11-19T09:21:25;10.30;69.50
55313;DHT22;46892;45.668;11.756;2023-11-19T09:23:51;10.30;68.70
55313;DHT22;46892;45.668;11.756;2023-11-19T09:26:16;10.40;68.10
55313;DHT22;46892;45.668;11.756;2023-11-19T09:28:42;10.40;66.60
55313;DHT22;46892;45.668;11.756;2023-11-19T09:31:17;10.50;68.30
55313;DHT22;46892;45.668;11.756;2023-11-19T09:33:43;10.50;68.30
55313;DHT22;46892;45.668;11.756;2023-11-19T09:36:12;10.60;69.50
55313;DHT22;46892;45.668;11.756;2023-11-19T09:38:39;10.70;70.30
55313;DHT22;46892;45.668;11.756;2023-11-19T09:41:05;10.70;66.30
55313;DHT22;46892;45.668;11.756;2023-11-19T09:43:35;10.70;67.60
55313;DHT22;46892;45.668;11.756;2023-11-19T09:46:06;10.70;64.60
55313;DHT22;46892;45.668;11.756;2023-11-19T09:48:33;10.70;65.90
55313;DHT22;46892;45.668;11.756;2023-11-19T09:51:01;10.70;63.40
55313;DHT22;46892;45.668;11.756;2023-11-19T09:53:27;10.80;66.80
55313;DHT22;46892;45.668;11.756;2023-11-19T09:55:53;10.80;64.80
55313;DHT22;46892;45.668;11.756;2023-11-19T09:58:20;10.70;63.90
55313;DHT22;46892;45.668;11.756;2023-11-19T10:00:47;10.70;64.30
55313;DHT22;46892;45.668;11.756;2023-11-19T10:03:14;10.60;62.40
55313;DHT22;46892;45.668;11.756;2023-11-19T10:05:39;10.60;62.20
55313;DHT22;46892;45.668;11.756;2023-11-19T10:08:06;10.60;64.10
55313;DHT22;46892;45.668;11.756;2023-11-19T10:10:34;10.60;65.30
55313;DHT22;46892;45.668;11.756;2023-11-19T10:13:00;10.60;60.10
55313;DHT22;46892;45.668;11.756;2023-11-19T10:15:26;10.60;60.10
55313;DHT22;46892;45.668;11.756;2023-11-19T10:17:58;10.60;60.10
55313;DHT22;46892;45.668;11.756;2023-11-19T10:20:24;10.60;57.40
55313;DHT22;46892;45.668;11.756;2023-11-19T10:22:55;10.60;57.50
55313;DHT22;46892;45.668;11.756;2023-11-19T10:25:25;10.60;57.70
55313;DHT22;46892;45.668;11.756;2023-11-19T10:27:52;10.70;58.30
55313;DHT22;46892;45.668;11.756;2023-11-19T10:30:25;10.70;57.90
55313;DHT22;46892;45.668;11.756;2023-11-19T10:33:11;10.80;60.60
55313;DHT22;46892;45.668;11.756;2023-11-19T10:35:54;10.80;62.20
55313;DHT22;46892;45.668;11.756;2023-11-19T10:38:22;10.90;60.70
55313;DHT22;46892;45.668;11.756;2023-11-19T10:40:49;10.90;60.50
55313;DHT22;46892;45.668;11.756;2023-11-19T10:43:15;10.90;60.50
55313;DHT22;46892;45.668;11.756;2023-11-19T10:45:41;11.00;58.70
55313;DHT22;46892;45.668;11.756;2023-11-19T10:48:07;11.00;58.40
55313;DHT22;46892;45.668;11.756;2023-11-19T10:50:39;11.00;59.60
55313;DHT22;46892;45.668;11.756;2023-11-19T10:53:05;11.00;59.10
55313;DHT22;46892;45.668;11.756;2023-11-19T10:55:38;10.90;59.20
55313;DHT22;46892;45.668;11.756;2023-11-19T10:58:08;10.90;59.20
55313;DHT22;46892;45.668;11.756;2023-11-19T11:03:16;10.80;62.50
55313;DHT22;46892;45.668;11.756;2023-11-19T11:05:42;10.70;62.50
55313;DHT22;46892;45.668;11.756;2023-11-19T11:08:09;10.70;63.00
55313;DHT22;46892;45.668;11.756;2023-11-19T11:10:41;10.60;63.60
55313;DHT22;46892;45.668;11.756;2023-11-19T11:13:08;10.50;64.00
55313;DHT22;46892;45.668;11.756;2023-11-19T11:15:34;10.50;63.80
55313;DHT22;46892;45.668;11.756;2023-11-19T11:18:03;10.50;64.80
55313;DHT22;46892;45.668;11.756;2023-11-19T11:20:32;10.50;65.30
55313;DHT22;46892;45.668;11.756;2023-11-19T11:37:21;10.70;65.80
55313;DHT22;46892;45.668;11.756;2023-11-19T11:39:50;10.70;66.10
55313;DHT22;46892;45.668;11.756;2023-11-19T11:45:06;10.80;65.60
55313;DHT22;46892;45.668;11.756;2023-11-19T11:50:19;10.80;65.20
55313;DHT22;46892;45.668;11.756;2023-11-19T11:55:35;11.10;62.90
55313;DHT22;46892;45.668;11.756;2023-11-19T11:58:05;11.20;63.20
55313;DHT22;46892;45.668;11.756;2023-11-19T12:00:32;11.30;62.40
55313;DHT22;46892;45.668;11.756;2023-11-19T12:03:02;11.30;61.60
55313;DHT22;46892;45.668;11.756;2023-11-19T12:05:30;11.20;60.20
55313;DHT22;46892;45.668;11.756;2023-11-19T12:07:58;11.20;59.50
55313;DHT22;46892;45.668;11.756;2023-11-19T12:10:25;11.20;60.40
55313;DHT22;46892;45.668;11.756;2023-11-19T12:12:58;11.20;62.00
55313;DHT22;46892;45.668;11.756;2023-11-19T12:15:24;11.20;61.60
55313;DHT22;46892;45.668;11.756;2023-11-19T12:17:52;11.10;61.10
55313;DHT22;46892;45.668;11.756;2023-11-19T12:20:19;11.10;59.10
55313;DHT22;46892;45.668;11.756;2023-11-19T12:22:46;11.20;58.60
55313;DHT22;46892;45.668;11.756;2023-11-19T12:25:15;11.10;59.30
55313;DHT22;46892;45.668;11.756;2023-11-19T12:27:47;11.20;58.90
55313;DHT22;46892;45.668;11.756;2023-11-19T12:30:23;11.20;60.90
55313;DHT22;46892;45.668;11.756;2023-11-19T12:32:50;11.20;60.30
55313;DHT22;46892;45.668;11.756;2023-11-19T12:35:16;11.20;59.70
55313;DHT22;46892;45.668;11.756;2023-11-19T12:37:45;11.20;60.50
55313;DHT22;46892;45.668;11.756;2023-11-19T12:42:51;11.20;60.10
55313;DHT22;46892;45.668;11.756;2023-11-19T12:45:18;11.20;60.50
55313;DHT22;46892;45.668;11.756;2023-11-19T12:47:45;11.20;59.90
55313;DHT22;46892;45.668;11.756;2023-11-19T12:50:17;11.30;58.60
55313;DHT22;46892;45.668;11.756;2023-11-19T12:52:57;11.40;58.20
55313;DHT22;46892;45.668;11.756;2023-11-19T12:55:29;11.40;57.90
55313;DHT22;46892;45.668;11.756;2023-11-19T12:57:56;11.50;58.10
55313;DHT22;46892;45.668;11.756;2023-11-19T13:00:25;11.60;58.80
55313;DHT22;46892;45.668;11.756;2023-11-19T13:02:57;11.70;57.10
55313;DHT22;46892;45.668;11.756;2023-11-19T13:05:31;11.70;56.70
55313;DHT22;46892;45.668;11.756;2023-11-19T13:08:06;11.80;57.90
55313;DHT22;46892;45.668;11.756;2023-11-19T13:13:11;11.80;56.70
55313;DHT22;46892;45.668;11.756;2023-11-19T13:15:37;11.70;57.30
55313;DHT22;46892;45.668;11.756;2023-11-19T13:18:03;11.70;56.70
55313;DHT22;46892;45.668;11.756;2023-11-19T13:20:29;11.70;57.50
55313;DHT22;46892;45.668;11.756;2023-11-19T13:25:21;11.60;59.20
55313;DHT22;46892;45.668;11.756;2023-11-19T13:27:47;11.60;58.50
55313;DHT22;46892;45.668;11.756;2023-11-19T13:30:13;11.70;58.80
55313;DHT22;46892;45.668;11.756;2023-11-19T13:32:39;11.70;58.20
55313;DHT22;46892;45.668;11.756;2023-11-19T13:35:05;11.70;56.80
55313;DHT22;46892;45.668;11.756;2023-11-19T13:37:31;11.80;55.90
55313;DHT22;46892;45.668;11.756;2023-11-19T13:39:56;11.70;57.00
55313;DHT22;46892;45.668;11.756;2023-11-19T13:42:22;11.80;57.90
55313;DHT22;46892;45.668;11.756;2023-11-19T13:44:48;11.70;57.80
55313;DHT22;46892;45.668;11.756;2023-11-19T13:47:15;11.60;57.60
55313;DHT22;46892;45.668;11.756;2023-11-19T13:49:41;11.60;57.10
55313;DHT22;46892;45.668;11.756;2023-11-19T13:52:06;11.60;56.90
55313;DHT22;46892;45.668;11.756;2023-11-19T13:54:32;11.60;55.70
55313;DHT22;46892;45.668;11.756;2023-11-19T13:56:58;11.60;56.10
55313;DHT22;46892;45.668;11.756;2023-11-19T13:59:23;11.60;56.10
55313;DHT22;46892;45.668;11.756;2023-11-19T14:01:49;11.60;56.60
55313;DHT22;46892;45.668;11.756;2023-11-19T14:04:15;11.60;56.10
55313;DHT22;46892;45.668;11.756;2023-11-19T14:06:40;11.60;56.50
55313;DHT22;46892;45.668;11.756;2023-11-19T14:09:07;11.60;57.40
55313;DHT22;46892;45.668;11.756;2023-11-19T14:11:33;11.60;55.90
55313;DHT22;46892;45.668;11.756;2023-11-19T14:13:58;11.50;56.10
55313;DHT22;46892;45.668;11.756;2023-11-19T14:16:27;11.50;56.60
55313;DHT22;46892;45.668;11.756;2023-11-19T14:18:53;11.50;56.20
55313;DHT22;46892;45.668;11.756;2023-11-19T14:21:20;11.50;55.30
55313;DHT22;46892;45.668;11.756;2023-11-19T14:23:46;11.50;54.20
55313;DHT22;46892;45.668;11.756;2023-11-19T14:26:12;11.40;54.90
55313;DHT22;46892;45.668;11.756;2023-11-19T14:28:37;11.40;55.20
55313;DHT22;46892;45.668;11.756;2023-11-19T14:31:04;11.30;55.60
55313;DHT22;46892;45.668;11.756;2023-11-19T14:33:30;11.40;56.40
55313;DHT22;46892;45.668;11.756;2023-11-19T14:35:56;11.40;56.80
55313;DHT22;46892;45.668;11.756;2023-11-19T14:38:22;11.40;56.50
55313;DHT22;46892;45.668;11.756;2023-11-19T14:40:48;11.30;56.00
55313;DHT22;46892;45.668;11.756;2023-11-19T14:43:13;11.30;55.90
55313;DHT22;46892;45.668;11.756;2023-11-19T14:45:41;11.30;55.50
55313;DHT22;46892;45.668;11.756;2023-11-19T14:48:06;11.40;56.00
55313;DHT22;46892;45.668;11.756;2023-11-19T14:50:32;11.40;55.50
55313;DHT22;46892;45.668;11.756;2023-11-19T14:52:58;11.30;56.00
55313;DHT22;46892;45.668;11.756;2023-11-19T14:55:24;11.30;56.60
55313;DHT22;46892;45.668;11.756;2023-11-19T14:57:49;11.20;57.30
55313;DHT22;46892;45.668;11.756;2023-11-19T15:00:16;11.10;57.80
55313;DHT22;46892;45.668;11.756;2023-11-19T15:02:42;11.00;58.50
55313;DHT22;46892;45.668;11.756;2023-11-19T15:05:08;10.90;57.70
55313;DHT22;46892;45.668;11.756;2023-11-19T15:07:37;11.00;58.10
55313;DHT22;46892;45.668;11.756;2023-11-19T15:10:04;10.90;58.00
55313;DHT22;46892;45.668;11.756;2023-11-19T15:12:35;10.90;58.30
55313;DHT22;46892;45.668;11.756;2023-11-19T15:15:06;10.90;59.90
55313;DHT22;46892;45.668;11.756;2023-11-19T15:17:32;10.80;61.10
55313;DHT22;46892;45.668;11.756;2023-11-19T15:19:57;10.80;60.60
55313;DHT22;46892;45.668;11.756;2023-11-19T15:22:23;10.80;60.30
55313;DHT22;46892;45.668;11.756;2023-11-19T15:24:49;10.80;61.30
55313;DHT22;46892;45.668;11.756;2023-11-19T15:27:14;10.70;62.20
55313;DHT22;46892;45.668;11.756;2023-11-19T15:29:40;10.60;62.30
55313;DHT22;46892;45.668;11.756;2023-11-19T15:32:06;10.50;62.60
55313;DHT22;46892;45.668;11.756;2023-11-19T15:34:33;10.50;62.40
55313;DHT22;46892;45.668;11.756;2023-11-19T15:36:59;10.30;61.80
55313;DHT22;46892;45.668;11.756;2023-11-19T15:39:26;10.30;62.10
55313;DHT22;46892;45.668;11.756;2023-11-19T15:41:53;10.20;62.90
55313;DHT22;46892;45.668;11.756;2023-11-19T15:44:18;10.10;63.60
55313;DHT22;46892;45.668;11.756;2023-11-19T15:46:44;10.00;63.40
55313;DHT22;46892;45.668;11.756;2023-11-19T15:49:10;9.90;64.00
55313;DHT22;46892;45.668;11.756;2023-11-19T15:51:36;9.80;65.00
55313;DHT22;46892;45.668;11.756;2023-11-19T15:54:02;9.80;65.40
55313;DHT22;46892;45.668;11.756;2023-11-19T15:56:27;9.70;66.50
55313;DHT22;46892;45.668;11.756;2023-11-19T15:58:53;9.50;67.80